Terminal Aerodrome Forecast
Issued by NWS Cleveland, OH

Home | Current Version | Previous Version | Text Only | Print | Product List | Glossary Off
Versions: 1 2 3 4 5 6 7 8 9 10 11 12 13 14 15 16 17 18 19 20 21 22 23 24 25 26 27 28 29 30 31 32 33

829
FTUS41 KCLE 080855 AAA
TAFCLE
TAF AMD
KCLE 080855Z 0809/0912 21010KT P6SM -RA SCT035 OVC050
     FM081200 24008KT 5SM -RA OVC020
     FM082200 26006KT 4SM -SN OVC015=

USA.gov is the U.S. government's official web portal to all federal, state and local government web resources and services.